Latest Weather Observations for Hobart Airport

IDT60901

Issued at 11:21 pm EST Thursday 2 July 2020 (issued every 10 minutes, with the page automatically refreshed every 10 minutes)

About weather observations | Map of Hobart area stations | Latest observations for Hobart area | Other Formats
Station Details ID: 094008 Name: HOBART AIRPORT Lat: -42.83 Lon: 147.50 Height: 4.0 m
Data from the previous 72 hours. | See also: Recent months at Hobart Airport
Date/Time
EST
Temp
°C
App
Temp
°C
Dew
Point
°C
Rel
Hum
%
Delta-T
°C
Wind Press
QNH
hPa
Press
MSL
hPa
Rain since
9am
mm
Dir  Spd
km/h
Gust
km/h
Spd
kts
Gust
kts
02/11:00pm 8.1 4.6 3.4 72 2.0 NNW 11 17 6 9 1006.5 1006.5 0.0
02/10:30pm 8.2 3.9 3.0 70 2.2 NNW 15 19 8 10 1006.5 1006.5 0.0
02/10:00pm 8.1 4.2 3.4 72 2.0 NNW 13 19 7 10 1006.1 1006.1 0.0
02/09:30pm 8.6 4.4 3.8 72 2.1 NNW 15 26 8 14 1006.1 1006.1 0.0
02/09:00pm 8.6 4.4 3.8 72 2.1 NW 15 24 8 13 1005.6 1005.6 0.0
02/08:30pm 8.7 2.0 3.6 70 2.2 NW 28 35 15 19 1005.0 1005.0 0.0
02/08:00pm 9.3 2.2 3.8 68 2.4 NW 30 35 16 19 1004.7 1004.7 0.0
02/07:30pm 9.3 2.6 3.8 68 2.4 NW 28 33 15 18 1004.3 1004.3 0.0
02/07:00pm 9.7 3.0 3.5 65 2.7 NW 28 37 15 20 1004.0 1004.0 0.0
02/06:30pm 9.9 4.4 3.8 66 2.7 NNW 22 32 12 17 1003.7 1003.7 0.0
02/06:00pm 10.2 5.0 3.6 63 2.9 NNW 20 35 11 19 1003.3 1003.3 0.0
02/05:30pm 10.2 5.3 3.9 65 2.8 NNW 19 28 10 15 1003.0 1003.0 0.0
02/05:00pm 10.9 5.6 2.9 58 3.5 NW 20 30 11 16 1002.7 1002.7 0.0
02/04:30pm 10.5 6.7 4.0 64 2.9 N 13 26 7 14 1002.4 1002.4 0.0
02/04:00pm 12.0 7.7 3.2 55 3.9 NNW 15 22 8 12 1001.8 1001.8 0.0
02/03:30pm 11.5 5.9 3.7 58 3.5 NNW 22 33 12 18 1001.6 1001.6 0.0
02/03:00pm 12.5 6.0 2.8 51 4.3 NNW 26 43 14 23 1001.3 1001.3 0.0
02/02:49pm 12.5 5.1 1.9 48 4.6 NW 30 48 16 26 1001.3 1001.3 0.0
02/02:30pm 13.3 8.2 3.9 53 4.3 NNW 20 33 11 18 1001.3 1001.3 0.0
02/02:00pm 12.8 7.9 4.3 56 3.9 NW 19 26 10 14 1000.8 1000.8 0.0
02/01:30pm 12.8 7.4 4.3 56 3.9 NW 22 30 12 16 1000.8 1000.8 0.0
02/01:00pm 12.2 5.5 3.5 55 3.9 WNW 28 35 15 19 1000.5 1000.5 0.0
02/12:30pm 11.8 5.6 4.1 59 3.5 WNW 26 35 14 19 1000.4 1000.4 0.0
02/12:00pm 12.0 6.3 5.1 62 3.2 NW 24 37 13 20 1000.4 1000.4 0.0
02/11:30am 11.8 7.1 6.1 68 2.7 NW 20 35 11 19 1000.0 1000.0 0.0
02/11:00am 9.9 5.4 6.0 77 1.8 NNW 19 24 10 13 999.8 999.8 0.0
02/10:30am 9.5 5.4 6.1 79 1.6 NNW 17 20 9 11 999.9 999.9 0.0
02/10:00am 9.3 4.8 6.1 80 1.5 NNW 19 24 10 13 999.7 999.7 0.0
02/09:30am 9.0 4.6 6.4 84 1.2 NW 19 26 10 14 999.0 999.0 0.0
02/09:00am 9.0 5.0 6.7 85 1.1 N 17 22 9 12 999.3 999.3 4.8
02/08:30am 9.4 5.5 7.1 85 1.1 NNW 17 22 9 12 999.0 999.0 4.6
02/08:00am 9.5 6.3 8.3 92 0.6 NNW 15 24 8 13 999.0 999.0 4.6
02/07:36am 10.0 6.0 8.4 90 0.8 NNW 19 26 10 14 999.1 999.1 3.4
02/07:30am 10.0 6.5 8.6 91 0.7 NNW 17 24 9 13 999.0 999.0 3.0
02/07:07am 10.3 6.2 8.7 90 0.8 NW 20 32 11 17 998.8 998.8 0.6
02/07:00am 11.0 7.8 8.4 84 1.3 NNW 15 26 8 14 998.7 998.7 0.0
02/06:30am 11.3 8.5 6.9 74 2.1 NNW 11 15 6 8 998.4 998.4 0.0
02/06:00am 11.4 7.4 6.6 72 2.3 N 17 24 9 13 998.6 998.6 0.0
02/05:30am 11.4 7.8 6.6 72 2.3 N 15 20 8 11 998.5 998.5 0.0
02/05:00am 11.2 7.6 6.6 73 2.2 N 15 30 8 16 998.6 998.6 0.0
02/04:30am 11.8 6.7 6.1 68 2.7 N 22 32 12 17 999.4 999.4 0.0
02/04:00am 11.8 6.8 6.3 69 2.6 N 22 32 12 17 999.4 999.4 0.0
02/03:30am 12.7 7.2 6.0 63 3.2 N 24 37 13 20 1000.1 1000.1 0.0
02/03:00am 12.9 8.7 5.7 61 3.4 NNE 17 37 9 20 1000.8 1000.8 0.0
02/02:43am 12.3 7.1 5.5 63 3.2 N 22 39 12 21 1001.5 1001.5 0.0
02/02:30am 11.3 9.0 5.5 67 2.7 N 7 13 4 7 1001.9 1001.9 0.0
02/02:00am 8.9 6.2 5.4 79 1.6 NNW 9 15 5 8 1002.2 1002.2 0.0
02/01:30am 7.3 6.2 5.0 85 1.0 CALM 0 0 0 0 1002.3 1002.3 0.0
02/01:00am 7.6 4.4 5.1 84 1.1 NNE 11 17 6 9 1002.7 1002.7 0.0
02/12:30am 7.1 4.2 4.8 85 1.0 NNE 9 11 5 6 1003.0 1003.0 0.0
02/12:00am 7.4 4.2 5.2 86 1.0 NE 11 15 6 8 1003.9 1003.9 0.0
 
Date/Time
EST
Temp
°C
App
Temp
°C
Dew
Point
°C
Rel
Hum
%
Delta-T
°C
Wind Press
QNH
hPa
Press
MSL
hPa
Rain since
9am
mm
Dir  Spd
km/h
Gust
km/h
Spd
kts
Gust
kts
01/11:30pm 9.6 6.5 5.4 75 1.9 NNE 11 13 6 7 1004.6 1004.6 0.0
01/11:00pm 10.2 6.6 4.9 69 2.4 N 13 15 7 8 1005.0 1005.0 0.0
01/10:30pm 8.0 4.7 4.6 79 1.5 N 11 17 6 9 1005.4 1005.4 0.0
01/10:00pm 8.8 5.9 4.5 74 1.9 NNW 9 13 5 7 1005.8 1005.8 0.0
01/09:30pm 8.9 5.7 4.9 76 1.8 NNE 11 13 6 7 1006.0 1006.0 0.0
01/09:00pm 9.9 6.7 5.0 71 2.2 N 11 15 6 8 1006.5 1006.5 0.0
01/08:30pm 9.6 6.1 5.4 75 1.9 NNE 13 17 7 9 1006.9 1006.9 0.0
01/08:00pm 9.3 6.2 5.6 78 1.7 N 11 15 6 8 1007.4 1007.4 0.0
01/07:30pm 10.5 7.1 6.0 74 2.1 N 13 17 7 9 1007.6 1007.6 0.0
01/07:00pm 11.5 8.4 5.5 66 2.8 NNE 11 19 6 10 1007.7 1007.7 0.0
01/06:30pm 10.8 6.7 6.1 73 2.2 NE 17 20 9 11 1007.9 1007.9 0.0
01/06:00pm 11.5 7.4 6.2 70 2.5 NNE 17 19 9 10 1008.1 1008.1 0.0
01/05:30pm 12.5 7.8 5.9 64 3.1 N 20 30 11 16 1008.3 1008.3 0.0
01/05:00pm 12.7 7.9 5.7 62 3.3 N 20 28 11 15 1008.4 1008.4 0.0
01/04:30pm 13.1 8.3 5.7 61 3.5 N 20 30 11 16 1008.8 1008.8 0.0
01/04:00pm 13.1 9.0 6.2 63 3.3 NNE 17 24 9 13 1008.9 1008.9 0.0
01/03:30pm 13.2 8.1 6.0 61 3.4 N 22 32 12 17 1009.0 1009.0 0.0
01/03:00pm 14.3 9.2 5.9 57 4.0 N 22 30 12 16 1009.2 1009.2 0.0
01/02:30pm 14.5 10.0 6.2 57 4.0 N 19 28 10 15 1009.7 1009.7 0.0
01/02:00pm 14.5 10.4 6.4 58 3.9 N 17 22 9 12 1010.1 1010.1 0.0
01/01:30pm 14.3 9.9 6.7 60 3.7 N 19 30 10 16 1010.5 1010.5 0.0
01/01:00pm 13.8 9.5 6.8 62 3.4 N 19 28 10 15 1011.2 1011.2 0.0
01/12:30pm 13.0 11.0 6.3 64 3.2 NNE 6 9 3 5 1011.8 1011.8 0.0
01/12:00pm 12.7 10.8 6.6 66 2.9 NW 6 7 3 4 1012.2 1012.2 0.0
01/11:30am 11.8 9.0 6.8 71 2.4 NW 11 13 6 7 1012.7 1012.7 0.0
01/11:00am 10.4 7.0 5.9 73 2.1 NW 13 15 7 8 1013.2 1013.3 0.0
01/10:30am 9.7 6.2 5.5 75 1.9 NW 13 15 7 8 1013.7 1013.8 0.0
01/10:00am 7.9 3.5 5.0 82 1.3 NW 17 22 9 12 1013.9 1014.0 0.0
01/09:30am 6.1 1.0 4.2 88 0.8 NW 20 26 11 14 1014.2 1014.2 0.0
01/09:00am 5.6 3.2 4.2 91 0.6 NNE 6 7 3 4 1014.2 1014.2 0.4
01/08:30am 4.7 1.6 3.5 92 0.5 ENE 9 15 5 8 1014.2 1014.2 0.4
01/08:00am 3.8 -0.6 2.6 92 0.5 NNW 15 19 8 10 1014.4 1014.4 0.0
01/07:30am 3.8 0.9 2.6 92 0.5 NNW 7 13 4 7 1014.6 1014.6 0.0
01/07:00am 3.8 0.9 2.8 93 0.4 W 7 11 4 6 1014.4 1014.4 0.0
01/06:30am 3.7 0.4 2.7 93 0.4 WNW 9 13 5 7 1014.3 1014.3 0.0
01/06:00am 3.4 0.5 2.4 93 0.4 W 7 9 4 5 1014.2 1014.2 0.0
01/05:30am 3.2 -0.1 2.2 93 0.4 NNW 9 11 5 6 1014.2 1014.2 0.0
01/05:00am 3.7 0.8 2.7 93 0.4 NW 7 9 4 5 1014.3 1014.3 0.0
01/04:30am 3.3 1.7 2.5 94 0.3 CALM 0 0 0 0 1014.4 1014.4 0.0
01/04:00am 3.1 0.3 1.8 91 0.5 ESE 6 9 3 5 1014.4 1014.4 0.0
01/03:30am 4.1 2.6 3.1 93 0.4 CALM 0 0 0 0 1014.5 1014.5 0.0
01/03:00am 6.1 1.9 3.7 84 1.0 NW 15 17 8 9 1014.7 1014.7 0.0
01/02:30am 6.5 3.5 4.2 85 1.0 N 9 11 5 6 1014.9 1014.9 0.0
01/02:00am 6.5 3.6 4.7 88 0.8 SSW 9 13 5 7 1014.9 1014.9 0.0
01/01:30am 6.0 3.8 3.6 84 1.0 NW 4 9 2 5 1014.9 1014.9 0.0
01/01:00am 4.3 1.7 3.1 92 0.5 S 6 6 3 3 1015.1 1015.2 0.0
01/12:30am 6.7 3.8 4.6 86 0.9 WNW 9 11 5 6 1015.3 1015.4 0.0
01/12:00am 6.2 2.5 4.6 89 0.7 NW 13 15 7 8 1015.4 1015.5 0.0
 
Date/Time
EST
Temp
°C
App
Temp
°C
Dew
Point
°C
Rel
Hum
%
Delta-T
°C
Wind Press
QNH
hPa
Press
MSL
hPa
Rain since
9am
mm
Dir  Spd
km/h
Gust
km/h
Spd
kts
Gust
kts
30/11:30pm 7.1 4.9 5.1 87 0.9 NNW 6 9 3 5 1015.6 1015.7 0.0
30/11:00pm 6.3 3.1 5.2 93 0.5 NNW 11 11 6 6 1015.8 1015.9 0.0
30/10:30pm 7.3 6.2 5.0 85 1.0 CALM 0 0 0 0 1015.7 1015.8 0.0
30/10:00pm 6.3 5.1 4.7 89 0.7 CALM 0 0 0 0 1015.7 1015.8 0.0
30/09:30pm 7.2 6.1 5.2 87 0.9 CALM 0 0 0 0 1015.5 1015.6 0.0
30/09:00pm 8.3 6.9 5.6 83 1.2 NNW 2 7 1 4 1015.4 1015.5 0.0
30/08:30pm 9.7 8.6 5.3 74 2.0 CALM 0 0 0 0 1015.6 1015.7 0.0
30/08:00pm 9.1 6.9 6.0 81 1.4 SE 7 9 4 5 1015.7 1015.8 0.0
30/07:30pm 10.1 7.5 6.0 76 1.9 N 9 13 5 7 1015.8 1015.9 0.0
30/07:00pm 10.6 6.8 5.6 71 2.3 N 15 19 8 10 1015.9 1016.0 0.0
30/06:30pm 10.9 7.3 5.2 68 2.6 NNE 13 22 7 12 1016.0 1016.1 0.0
30/06:00pm 10.2 6.2 4.9 69 2.4 N 15 19 8 10 1015.9 1016.0 0.0
30/05:30pm 9.8 6.0 4.1 67 2.5 N 13 15 7 8 1015.5 1015.6 0.0
30/05:00pm 10.7 6.3 4.5 65 2.8 N 17 22 9 12 1015.5 1015.6 0.0
30/04:30pm 10.8 6.0 4.6 65 2.8 NNW 19 28 10 15 1016.0 1016.1 0.0
30/04:00pm 11.2 6.4 4.5 63 3.0 NNW 19 26 10 14 1016.1 1016.2 0.0
30/03:30pm 12.4 8.0 4.8 60 3.5 NNW 17 32 9 17 1016.0 1016.1 0.0
30/03:00pm 13.1 10.6 4.9 57 3.8 NW 7 11 4 6 1016.0 1016.1 0.0
30/02:30pm 11.7 8.8 4.9 63 3.1 NNW 9 15 5 8 1016.4 1016.5 0.0
30/02:00pm 11.5 9.1 5.2 65 2.9 NW 7 9 4 5 1016.8 1016.9 0.0
30/01:30pm 11.6 8.3 4.5 61 3.2 NW 11 15 6 8 1017.2 1017.3 0.0
30/01:00pm 11.1 7.4 4.4 63 3.0 NW 13 17 7 9 1017.7 1017.8 0.0
30/12:30pm 10.3 7.4 4.5 67 2.6 NW 9 13 5 7 1018.4 1018.5 0.0
30/12:00pm 10.1 6.3 3.7 64 2.8 NW 13 17 7 9 1018.9 1019.0 0.0
30/11:30am 9.2 5.1 4.4 72 2.1 NNW 15 20 8 11 1019.5 1019.6 0.0
30/11:00am 9.0 5.1 5.2 77 1.7 NW 15 19 8 10 1020.0 1020.1 0.0
30/10:30am 7.7 4.1 5.2 84 1.1 NW 13 15 7 8 1020.4 1020.5 0.0
30/10:00am 7.3 3.3 5.0 85 1.0 NW 15 19 8 10 1020.5 1020.6 0.0
30/09:30am 7.3 2.9 4.8 84 1.1 NW 17 19 9 10 1020.7 1020.8 0.0
30/09:00am 6.7 3.8 4.4 85 1.0 NNW 9 15 5 8 1021.0 1021.1 0.0
30/08:30am 6.5 2.4 4.2 85 1.0 NNW 15 17 8 9 1021.4 1021.5 0.0
30/08:00am 6.2 2.1 4.1 86 0.9 NNW 15 17 8 9 1021.8 1021.9 0.0
30/07:30am 5.3 0.7 3.9 91 0.6 NNW 17 22 9 12 1021.9 1022.0 0.0
30/07:00am 5.7 2.3 4.0 89 0.7 NNW 11 15 6 8 1021.8 1021.9 0.0
30/06:30am 4.7 1.3 4.0 95 0.3 NNW 11 15 6 8 1021.9 1022.0 0.0
30/06:00am 4.9 1.8 3.7 92 0.5 NW 9 11 5 6 1022.0 1022.1 0.0
30/05:30am 4.4 1.0 3.9 97 0.2 NNW 11 13 6 7 1022.2 1022.3 0.0
30/05:00am 5.3 2.6 3.9 91 0.6 N 7 11 4 6 1022.4 1022.5 0.0
30/04:30am 4.8 1.7 3.6 92 0.5 NNW 9 13 5 7 1022.7 1022.8 0.0
30/04:00am 5.0 1.2 3.8 92 0.5 NNW 13 15 7 8 1022.9 1023.0 0.0
30/03:30am 4.9 1.4 3.4 90 0.6 NW 11 15 6 8 1023.1 1023.2 0.0
30/03:00am 4.9 1.5 3.9 93 0.4 NNW 11 15 6 8 1023.3 1023.4 0.0
30/02:30am 5.2 2.1 3.8 91 0.6 NNW 9 11 5 6 1023.5 1023.6 0.0
30/02:00am 5.5 2.1 4.1 91 0.6 NW 11 13 6 7 1023.8 1023.9 0.0
30/01:30am 5.8 2.1 4.4 91 0.6 NW 13 17 7 9 1024.1 1024.2 0.0
30/01:00am 5.3 2.6 3.9 91 0.6 WNW 7 13 4 7 1024.2 1024.3 0.0
30/12:55am 4.3 1.7 3.3 93 0.4 NW 6 9 3 5 1024.2 1024.3 0.0
30/12:37am 4.0 2.6 3.3 95 0.3 CALM 0 0 0 0 1024.4 1024.5 0.0
30/12:30am 4.7 3.3 3.5 92 0.5 CALM 0 0 0 0 1024.4 1024.5 0.0
30/12:00am 5.6 3.3 4.7 94 0.4 ENE 6 7 3 4 1024.7 1024.8 0.0
 
Date/Time
EST
Temp
°C
App
Temp
°C
Dew
Point
°C
Rel
Hum
%
Delta-T
°C
Wind Press
QNH
hPa
Press
MSL
hPa
Rain since
9am
mm
Dir  Spd
km/h
Gust
km/h
Spd
kts
Gust
kts
29/11:30pm 6.7 3.1 4.9 88 0.8 NW 13 19 7 10 1024.8 1024.9 0.0

Latest Capital City Observations: Canberra | Sydney | Melbourne | Brisbane | Adelaide | Perth | Hobart | Darwin

Other formats

Comma delimited format used in spreadsheet applications
http://www.bom.gov.au/fwo/IDT60901/IDT60901.94975.axf

JavaScript Object Notation format (JSON) in row-major order
http://www.bom.gov.au/fwo/IDT60901/IDT60901.94975.json

Data quality

Most of these data are generated automatically and are frequently updated. Quality checks on data are not normally performed. It is possible for incorrect values to appear. Refer to information at About Latest Weather Observations and please check the disclaimer before using these data.